createdAt,value
2022-11-02T00:01:37.444Z,11.48
2022-11-02T00:04:03.803Z,11.61
2022-11-02T00:06:30.156Z,11.60
2022-11-02T00:08:56.477Z,11.56
2022-11-02T00:11:22.801Z,11.54
2022-11-02T00:13:49.147Z,11.50
2022-11-02T00:16:17.919Z,11.47
2022-11-02T00:18:47.429Z,11.46
2022-11-02T00:21:16.559Z,11.46
2022-11-02T00:23:43.125Z,11.51
2022-11-02T00:26:09.729Z,11.51
2022-11-02T00:28:36.133Z,11.54
2022-11-02T00:31:03.044Z,11.59
2022-11-02T00:33:29.437Z,11.68
2022-11-02T00:35:55.956Z,11.70
2022-11-02T00:38:22.284Z,11.80
2022-11-02T00:40:48.611Z,11.82
2022-11-02T00:43:14.927Z,11.86
2022-11-02T00:45:41.308Z,11.88
2022-11-02T00:48:07.791Z,12.02
2022-11-02T00:50:34.241Z,12.11
2022-11-02T00:53:00.555Z,12.06
2022-11-02T00:55:26.892Z,12.01
2022-11-02T00:57:54.032Z,12.09
2022-11-02T01:00:20.677Z,12.01
2022-11-02T01:02:47.145Z,11.95
2022-11-02T01:05:13.615Z,11.97
2022-11-02T01:07:40.216Z,12.05
2022-11-02T01:10:08.553Z,12.13
2022-11-02T01:12:38.308Z,12.08
2022-11-02T01:15:06.955Z,11.53
2022-11-02T01:17:33.467Z,11.07
2022-11-02T01:19:59.790Z,10.75
2022-11-02T01:22:26.101Z,10.52
2022-11-02T01:24:52.461Z,10.43
2022-11-02T01:27:18.776Z,10.35
2022-11-02T01:29:45.084Z,10.26
2022-11-02T01:32:11.384Z,10.15
2022-11-02T01:34:37.739Z,10.15
2022-11-02T01:37:04.068Z,10.21
2022-11-02T01:39:30.411Z,10.12
2022-11-02T01:41:56.846Z,10.18
2022-11-02T01:44:32.025Z,10.17
2022-11-02T01:47:03.317Z,9.95
2022-11-02T01:49:33.577Z,9.79
2022-11-02T01:52:07.898Z,9.61
2022-11-02T01:54:40.149Z,9.46
2022-11-02T01:57:09.953Z,9.39
2022-11-02T01:59:46.344Z,9.35
2022-11-02T02:02:20.323Z,9.31
2022-11-02T02:04:51.258Z,9.27
2022-11-02T02:07:18.999Z,9.25
2022-11-02T02:09:48.752Z,9.22
2022-11-02T02:12:17.803Z,9.22
2022-11-02T02:14:44.173Z,9.17
2022-11-02T02:17:37.431Z,9.12
2022-11-02T02:20:26.145Z,9.05
2022-11-02T02:23:07.549Z,8.97
2022-11-02T02:25:52.649Z,8.95
2022-11-02T02:28:40.521Z,8.98
2022-11-02T02:31:30.967Z,9.04
2022-11-02T02:34:03.352Z,9.08
2022-11-02T02:36:37.199Z,9.15
2022-11-02T02:39:15.925Z,9.17
2022-11-02T02:41:51.458Z,9.32
2022-11-02T02:44:22.872Z,9.39
2022-11-02T02:47:00.573Z,9.41
2022-11-02T02:49:37.855Z,9.44
2022-11-02T02:52:05.762Z,9.49
2022-11-02T02:54:46.424Z,9.51
2022-11-02T02:57:23.336Z,9.60
2022-11-02T02:59:49.900Z,9.68
2022-11-02T03:02:21.208Z,9.66
2022-11-02T03:04:47.874Z,9.83
2022-11-02T03:07:19.983Z,9.79
2022-11-02T03:09:50.829Z,9.82
2022-11-02T03:12:32.257Z,9.95
2022-11-02T03:15:20.076Z,10.08
2022-11-02T03:18:17.211Z,10.07
2022-11-02T03:21:34.373Z,10.12
2022-11-02T03:24:07.792Z,10.16
2022-11-02T03:26:39.872Z,10.21
2022-11-02T03:29:12.695Z,10.28
2022-11-02T03:31:57.737Z,10.28
2022-11-02T03:34:48.164Z,10.26
2022-11-02T03:37:22.198Z,10.30
2022-11-02T03:39:51.780Z,10.34
2022-11-02T03:42:23.688Z,10.47
2022-11-02T03:44:56.779Z,10.50
2022-11-02T03:47:25.993Z,10.52
2022-11-02T03:49:55.476Z,10.50
2022-11-02T03:52:26.260Z,10.48
2022-11-02T03:55:13.649Z,10.53
2022-11-02T03:57:49.161Z,10.57
2022-11-02T04:00:21.953Z,10.67
2022-11-02T04:02:53.657Z,10.72
2022-11-02T04:05:21.084Z,10.72
2022-11-02T04:08:10.810Z,10.80
2022-11-02T04:10:57.125Z,10.89
2022-11-02T04:13:42.030Z,10.97
2022-11-02T04:16:08.354Z,10.98
2022-11-02T04:18:53.079Z,11.08
2022-11-02T04:21:19.450Z,11.10
2022-11-02T04:24:04.113Z,11.18
2022-11-02T04:26:30.527Z,11.11
2022-11-02T04:28:56.847Z,11.14
2022-11-02T04:31:23.160Z,11.20
2022-11-02T04:33:49.460Z,11.26
2022-11-02T04:36:15.801Z,11.28
2022-11-02T04:38:42.195Z,11.25
2022-11-02T04:41:29.369Z,11.23
2022-11-02T04:43:56.237Z,11.22
2022-11-02T04:46:24.288Z,11.26
2022-11-02T04:48:50.888Z,11.30
2022-11-02T04:51:17.707Z,11.20
2022-11-02T04:53:44.053Z,11.13
2022-11-02T04:56:10.604Z,11.23
2022-11-02T04:58:37.058Z,11.24
2022-11-02T05:01:13.582Z,11.24
2022-11-02T05:03:40.384Z,11.19
2022-11-02T05:06:06.818Z,11.14
2022-11-02T05:08:33.254Z,11.14
2022-11-02T05:10:59.609Z,11.05
2022-11-02T05:13:26.653Z,10.80
2022-11-02T05:15:56.888Z,10.57
2022-11-02T05:18:24.179Z,10.49
2022-11-02T05:20:55.766Z,10.47
2022-11-02T05:23:23.053Z,10.44
2022-11-02T05:26:04.088Z,10.37
2022-11-02T05:28:32.006Z,10.37
2022-11-02T05:31:02.718Z,10.40
2022-11-02T05:33:31.022Z,10.33
2022-11-02T05:35:59.250Z,10.35
2022-11-02T05:38:26.745Z,10.28
2022-11-02T05:40:54.814Z,10.20
2022-11-02T05:43:21.436Z,10.21
2022-11-02T05:45:55.974Z,10.19
2022-11-02T05:48:22.773Z,10.22
2022-11-02T05:50:49.720Z,10.24
2022-11-02T05:53:16.460Z,10.29
2022-11-02T05:55:42.818Z,10.30
2022-11-02T05:58:09.165Z,10.34
2022-11-02T06:00:35.485Z,10.37
2022-11-02T06:03:02.130Z,10.40
2022-11-02T06:05:28.648Z,10.43
2022-11-02T06:07:58.861Z,10.39
2022-11-02T06:10:26.497Z,10.37
2022-11-02T06:13:00.973Z,10.41
2022-11-02T06:15:36.467Z,10.43
2022-11-02T06:18:02.843Z,10.45
2022-11-02T06:20:29.261Z,10.48
2022-11-02T06:22:55.601Z,10.37
2022-11-02T06:25:22.008Z,10.41
2022-11-02T06:27:58.826Z,10.34
2022-11-02T06:30:25.308Z,10.30
2022-11-02T06:32:53.724Z,10.31
2022-11-02T06:35:22.017Z,10.32
2022-11-02T06:37:48.721Z,10.36
2022-11-02T06:40:15.527Z,10.36
2022-11-02T06:42:45.202Z,10.45
2022-11-02T06:45:16.946Z,10.42
2022-11-02T06:47:43.286Z,10.37
2022-11-02T06:50:09.788Z,10.37
2022-11-02T06:52:44.157Z,10.35
2022-11-02T06:55:11.767Z,10.30
2022-11-02T06:57:39.125Z,10.29
2022-11-02T07:02:40.188Z,10.22
2022-11-02T07:05:06.818Z,10.25
2022-11-02T07:07:33.117Z,10.29
2022-11-02T07:09:59.498Z,10.32
2022-11-02T07:12:25.915Z,10.34
2022-11-02T07:14:52.247Z,10.27
2022-11-02T07:17:18.933Z,10.31
2022-11-02T07:19:45.335Z,10.35
2022-11-02T07:22:11.689Z,10.44
2022-11-02T07:24:38.009Z,10.46
2022-11-02T07:27:04.493Z,10.50
2022-11-02T07:29:30.806Z,10.55
2022-11-02T07:31:57.122Z,10.70
2022-11-02T07:34:23.420Z,10.94
2022-11-02T07:36:49.758Z,11.11
2022-11-02T07:39:16.154Z,11.27
2022-11-02T07:41:42.511Z,11.37
2022-11-02T07:44:09.766Z,11.69
2022-11-02T07:46:36.098Z,12.04
2022-11-02T07:49:02.411Z,12.21
2022-11-02T07:51:30.278Z,12.41
2022-11-02T07:53:56.615Z,12.77
2022-11-02T07:56:22.913Z,13.22
2022-11-02T07:58:49.244Z,13.53
2022-11-02T08:01:15.601Z,13.91
2022-11-02T08:03:41.965Z,14.27
2022-11-02T08:06:08.280Z,14.27
2022-11-02T08:08:34.602Z,14.30
2022-11-02T08:11:09.125Z,14.55
2022-11-02T08:13:37.385Z,14.63
2022-11-02T08:16:04.108Z,14.99
2022-11-02T08:18:31.046Z,15.12
2022-11-02T08:20:59.058Z,15.72
2022-11-02T08:23:26.387Z,15.45
2022-11-02T08:25:54.297Z,15.78
2022-11-02T08:28:23.717Z,15.80
2022-11-02T08:30:50.257Z,16.27
2022-11-02T08:33:18.409Z,16.33
2022-11-02T08:35:46.119Z,16.41
2022-11-02T08:38:13.509Z,15.22
2022-11-02T08:40:40.117Z,14.54
2022-11-02T08:43:11.624Z,15.26
2022-11-02T08:46:12.692Z,14.72
2022-11-02T08:48:26.746Z,14.10
2022-11-02T08:50:53.197Z,14.31
2022-11-02T08:53:19.530Z,15.04
2022-11-02T08:55:45.815Z,15.32
2022-11-02T08:58:12.127Z,15.30
2022-11-02T09:00:38.750Z,15.12
2022-11-02T09:03:12.412Z,14.45
2022-11-02T09:05:40.937Z,14.07
2022-11-02T09:08:11.389Z,14.17
2022-11-02T09:10:38.096Z,15.08
2022-11-02T09:13:07.974Z,16.37
2022-11-02T09:15:36.726Z,17.30
2022-11-02T09:18:04.493Z,17.19
2022-11-02T09:20:31.549Z,17.35
2022-11-02T09:22:57.870Z,17.00
2022-11-02T09:25:24.277Z,17.43
2022-11-02T09:27:55.787Z,17.75
2022-11-02T09:30:23.113Z,17.92
2022-11-02T09:33:00.269Z,18.50
2022-11-02T09:35:28.881Z,19.02
2022-11-02T09:37:55.555Z,19.39
2022-11-02T09:40:24.426Z,19.41
2022-11-02T09:43:05.583Z,18.98
2022-11-02T09:45:50.321Z,18.69
2022-11-02T09:48:27.088Z,19.06
2022-11-02T09:51:17.422Z,19.46
2022-11-02T09:53:48.554Z,18.88
2022-11-02T09:56:19.607Z,19.69
2022-11-02T09:58:53.323Z,20.35
2022-11-02T10:01:50.166Z,19.77
2022-11-02T10:04:44.025Z,20.01
2022-11-02T10:07:32.748Z,19.28
2022-11-02T10:10:23.292Z,19.27
2022-11-02T10:13:01.658Z,19.61
2022-11-02T10:15:41.050Z,19.17
2022-11-02T10:18:19.973Z,19.78
2022-11-02T10:20:50.739Z,20.31
2022-11-02T10:23:24.857Z,20.04
2022-11-02T10:25:51.789Z,20.48
2022-11-02T10:28:26.241Z,20.74
2022-11-02T10:30:54.345Z,20.62
2022-11-02T10:33:26.606Z,20.50
2022-11-02T10:36:16.998Z,19.79
2022-11-02T10:38:52.255Z,20.11
2022-11-02T10:41:39.920Z,21.07
2022-11-02T10:44:31.748Z,20.77
2022-11-02T10:47:04.371Z,20.30
2022-11-02T10:50:01.425Z,20.26
2022-11-02T10:52:38.233Z,20.56
2022-11-02T10:55:08.782Z,20.64
2022-11-02T10:57:39.496Z,20.44
2022-11-02T11:00:36.386Z,20.45
2022-11-02T11:03:12.282Z,20.48
2022-11-02T11:05:59.343Z,21.24
2022-11-02T11:08:35.559Z,20.48
2022-11-02T11:11:14.900Z,19.96
2022-11-02T11:16:39.631Z,20.22
2022-11-02T11:22:39.160Z,20.45
2022-11-02T11:25:28.366Z,20.97
2022-11-02T11:27:59.228Z,19.91
2022-11-02T11:30:54.227Z,19.49
2022-11-02T11:33:19.195Z,19.53
2022-11-02T11:35:49.993Z,20.18
2022-11-02T11:38:20.848Z,19.34
2022-11-02T11:40:53.893Z,20.82
2022-11-02T11:43:23.525Z,20.94
2022-11-02T11:46:07.333Z,20.38
2022-11-02T11:48:44.930Z,20.71
2022-11-02T11:51:35.229Z,20.94
2022-11-02T11:54:07.260Z,21.25
2022-11-02T11:56:33.931Z,21.52
2022-11-02T11:59:00.262Z,21.41
2022-11-02T12:01:26.653Z,20.15
2022-11-02T12:03:57.060Z,21.09
2022-11-02T12:06:33.811Z,22.25
2022-11-02T12:09:06.163Z,22.84
2022-11-02T12:11:55.726Z,22.45
2022-11-02T12:14:47.745Z,21.36
2022-11-02T12:17:27.729Z,21.85
2022-11-02T12:20:19.733Z,21.43
2022-11-02T12:23:19.675Z,18.54
2022-11-02T12:25:54.655Z,16.99
2022-11-02T12:28:45.081Z,16.07
2022-11-02T12:31:11.336Z,16.15
2022-11-02T12:33:56.413Z,15.91
2022-11-02T12:37:09.826Z,15.61
2022-11-02T12:39:40.522Z,15.45
2022-11-02T12:42:19.018Z,15.10
2022-11-02T12:45:04.143Z,15.14
2022-11-02T12:47:51.641Z,15.16
2022-11-02T12:50:29.899Z,15.24
2022-11-02T12:53:28.974Z,15.11
2022-11-02T12:55:59.802Z,15.17
2022-11-02T12:58:29.813Z,15.13
2022-11-02T13:01:13.304Z,14.91
2022-11-02T13:04:09.532Z,14.78
2022-11-02T13:06:43.834Z,14.73
2022-11-02T13:09:25.057Z,14.73
2022-11-02T13:11:59.025Z,14.81
2022-11-02T13:14:29.078Z,14.73
2022-11-02T13:17:24.007Z,14.79
2022-11-02T13:19:55.906Z,14.76
2022-11-02T13:22:28.456Z,14.73
2022-11-02T13:25:05.442Z,14.78
2022-11-02T13:27:39.250Z,14.87
2022-11-02T13:30:17.790Z,14.78
2022-11-02T13:32:56.614Z,14.76
2022-11-02T13:35:34.861Z,14.69
2022-11-02T13:38:18.398Z,14.68
2022-11-02T13:40:47.141Z,14.56
2022-11-02T13:43:19.608Z,14.56
2022-11-02T13:46:07.866Z,14.55
2022-11-02T13:48:52.266Z,14.46
2022-11-02T13:51:36.433Z,14.39
2022-11-02T13:54:17.647Z,14.33
2022-11-02T13:56:45.627Z,14.28
2022-11-02T13:59:26.113Z,14.29
2022-11-02T14:01:55.268Z,14.22
2022-11-02T14:04:22.458Z,14.20
2022-11-02T14:07:02.656Z,14.06
2022-11-02T14:09:42.131Z,13.84
2022-11-02T14:12:17.706Z,13.64
2022-11-02T14:14:45.313Z,13.54
2022-11-02T14:17:17.493Z,13.58
2022-11-02T14:19:43.757Z,13.69
2022-11-02T14:22:13.542Z,13.68
2022-11-02T14:24:40.703Z,13.64
2022-11-02T14:27:12.827Z,13.62
2022-11-02T14:29:42.254Z,13.68
2022-11-02T14:32:18.854Z,13.74
2022-11-02T14:35:09.929Z,13.58
2022-11-02T14:38:05.635Z,13.41
2022-11-02T14:40:50.540Z,13.40
2022-11-02T14:43:56.389Z,13.59
2022-11-02T14:46:53.330Z,13.68
2022-11-02T14:49:37.859Z,13.63
2022-11-02T14:52:24.801Z,13.59
2022-11-02T14:54:59.218Z,13.54
2022-11-02T14:57:34.772Z,13.51
2022-11-02T15:00:18.283Z,13.57
2022-11-02T15:02:45.627Z,13.59
2022-11-02T15:05:22.741Z,13.57
2022-11-02T15:07:54.641Z,13.55
2022-11-02T15:10:20.900Z,13.51
2022-11-02T15:12:48.444Z,13.39
2022-11-02T15:15:31.447Z,13.24
2022-11-02T15:17:57.692Z,13.13
2022-11-02T15:20:27.341Z,12.98
2022-11-02T15:22:58.502Z,12.83
2022-11-02T15:25:31.220Z,12.77
2022-11-02T15:28:05.709Z,12.68
2022-11-02T15:30:33.081Z,12.59
2022-11-02T15:33:04.254Z,12.55
2022-11-02T15:35:34.698Z,12.51
2022-11-02T15:38:17.083Z,12.51
2022-11-02T15:40:53.435Z,12.46
2022-11-02T15:43:37.621Z,12.34
2022-11-02T15:46:32.824Z,12.28
2022-11-02T15:49:26.452Z,12.23
2022-11-02T15:52:12.956Z,12.13
2022-11-02T15:55:18.038Z,12.14
2022-11-02T15:57:56.897Z,12.05
2022-11-02T16:00:30.285Z,11.98
2022-11-02T16:03:05.339Z,11.98
2022-11-02T16:05:48.250Z,11.87
2022-11-02T16:08:30.797Z,11.83
2022-11-02T16:11:17.336Z,11.67
2022-11-02T16:14:03.258Z,11.55
2022-11-02T16:16:35.517Z,11.50
2022-11-02T16:19:02.269Z,11.53
2022-11-02T16:21:28.578Z,11.50
2022-11-02T16:23:57.516Z,11.45
2022-11-02T16:26:27.670Z,11.45
2022-11-02T16:28:56.864Z,11.44
2022-11-02T16:31:30.490Z,11.42
2022-11-02T16:34:13.512Z,11.37
2022-11-02T16:36:40.062Z,11.36
2022-11-02T16:39:16.499Z,11.36
2022-11-02T16:41:48.328Z,11.36
2022-11-02T16:44:18.477Z,11.32
2022-11-02T16:46:47.925Z,11.28
2022-11-02T16:49:18.560Z,11.25
2022-11-02T16:51:52.713Z,11.12
2022-11-02T16:54:25.692Z,11.11
2022-11-02T16:56:53.119Z,11.17
2022-11-02T16:59:21.275Z,11.23
2022-11-02T17:01:48.043Z,11.29
2022-11-02T17:04:14.563Z,11.32
2022-11-02T17:06:41.982Z,11.28
2022-11-02T17:09:23.713Z,11.35
2022-11-02T17:11:51.858Z,11.44
2022-11-02T17:14:22.931Z,11.49
2022-11-02T17:17:06.773Z,11.46
2022-11-02T17:19:38.874Z,11.52
2022-11-02T17:22:29.133Z,11.48
2022-11-02T17:25:19.629Z,11.40
2022-11-02T17:27:46.181Z,11.36
2022-11-02T17:30:34.392Z,11.38
2022-11-02T17:33:09.628Z,11.37
2022-11-02T17:35:36.638Z,11.34
2022-11-02T17:38:03.612Z,11.30
2022-11-02T17:40:30.365Z,11.17
2022-11-02T17:42:59.299Z,11.08
2022-11-02T17:45:28.282Z,11.10
2022-11-02T17:47:56.331Z,11.07
2022-11-02T17:50:24.150Z,11.08
2022-11-02T17:52:50.889Z,11.08
2022-11-02T17:55:23.105Z,11.04
2022-11-02T17:57:50.006Z,11.04
2022-11-02T18:00:17.706Z,11.04
2022-11-02T18:02:51.719Z,11.03
2022-11-02T18:05:24.289Z,11.06
2022-11-02T18:07:51.375Z,11.15
2022-11-02T18:10:29.249Z,11.19
2022-11-02T18:12:55.999Z,11.15
2022-11-02T18:15:28.220Z,11.21
2022-11-02T18:17:59.191Z,11.26
2022-11-02T18:20:27.991Z,11.29
2022-11-02T18:22:55.619Z,11.26
2022-11-02T18:25:21.981Z,11.33
2022-11-02T18:27:48.481Z,11.29
2022-11-02T18:30:16.648Z,11.28
2022-11-02T18:32:45.342Z,11.22
2022-11-02T18:35:17.262Z,11.25
2022-11-02T18:37:43.896Z,11.27
2022-11-02T18:40:13.058Z,11.30
2022-11-02T18:42:40.612Z,11.27
2022-11-02T18:45:08.145Z,11.29
2022-11-02T18:47:34.818Z,11.33
2022-11-02T18:50:01.624Z,11.28
2022-11-02T18:52:32.194Z,11.27
2022-11-02T18:55:03.365Z,11.25
2022-11-02T18:57:29.772Z,11.30
2022-11-02T18:59:56.162Z,11.38
2022-11-02T19:02:22.599Z,11.35
2022-11-02T19:04:48.929Z,11.33
2022-11-02T19:07:33.809Z,11.31
2022-11-02T19:10:03.606Z,11.29
2022-11-02T19:12:30.919Z,11.22
2022-11-02T19:14:57.288Z,11.24
2022-11-02T19:17:25.389Z,11.23
2022-11-02T19:19:52.152Z,11.23
2022-11-02T19:22:20.867Z,11.15
2022-11-02T19:24:47.562Z,11.18
2022-11-02T19:27:15.915Z,11.21
2022-11-02T19:29:42.379Z,11.26
2022-11-02T19:32:09.018Z,11.24
2022-11-02T19:34:36.715Z,11.30
2022-11-02T19:37:06.949Z,11.28
2022-11-02T19:39:33.439Z,11.28
2022-11-02T19:41:59.745Z,11.27
2022-11-02T19:44:26.447Z,11.30
2022-11-02T19:46:52.739Z,11.32
2022-11-02T19:49:19.070Z,11.35
2022-11-02T19:51:45.402Z,11.34
2022-11-02T19:54:11.884Z,11.32
2022-11-02T19:56:38.559Z,11.31
2022-11-02T19:59:05.833Z,11.27
2022-11-02T20:01:37.578Z,11.21
2022-11-02T20:04:04.732Z,11.23
2022-11-02T20:06:37.307Z,11.24
2022-11-02T20:09:05.912Z,11.19
2022-11-02T20:11:32.640Z,11.23
2022-11-02T20:14:00.915Z,11.22
2022-11-02T20:16:27.654Z,11.19
2022-11-02T20:18:54.781Z,11.15
2022-11-02T20:21:29.890Z,11.09
2022-11-02T20:23:59.117Z,11.08
2022-11-02T20:26:31.758Z,11.06
2022-11-02T20:28:59.841Z,11.05
2022-11-02T20:31:33.152Z,11.03
2022-11-02T20:34:00.650Z,10.98
2022-11-02T20:36:27.378Z,10.94
2022-11-02T20:38:54.320Z,10.94
2022-11-02T20:41:22.696Z,10.98
2022-11-02T20:43:50.399Z,10.93
2022-11-02T20:49:20.004Z,11.01
2022-11-02T20:51:49.970Z,11.03
2022-11-02T20:54:18.219Z,10.99
2022-11-02T20:56:44.508Z,11.03
2022-11-02T20:59:10.823Z,11.04
2022-11-02T21:01:37.189Z,11.01
2022-11-02T21:04:03.846Z,10.98
2022-11-02T21:06:30.176Z,11.02
2022-11-02T21:08:56.797Z,11.07
2022-11-02T21:11:41.590Z,11.04
2022-11-02T21:14:08.009Z,11.03
2022-11-02T21:16:34.308Z,11.06
2022-11-02T21:19:00.736Z,11.02
2022-11-02T21:21:27.151Z,10.98
2022-11-02T21:23:55.351Z,10.97
2022-11-02T21:26:21.829Z,11.03
2022-11-02T21:28:48.214Z,11.01
2022-11-02T21:31:20.328Z,11.01
2022-11-02T21:33:48.110Z,11.00
2022-11-02T21:36:16.046Z,11.07
2022-11-02T21:38:43.751Z,11.03
2022-11-02T21:41:14.897Z,11.05
2022-11-02T21:43:41.213Z,11.05
2022-11-02T21:46:07.611Z,11.11
2022-11-02T21:48:35.408Z,11.10
2022-11-02T21:51:10.306Z,11.09
2022-11-02T21:53:38.719Z,11.08
2022-11-02T21:56:10.807Z,11.05
2022-11-02T21:58:42.872Z,11.04
2022-11-02T22:01:33.829Z,11.04
2022-11-02T22:04:00.488Z,11.01
2022-11-02T22:06:30.970Z,11.03
2022-11-02T22:08:58.918Z,10.99
2022-11-02T22:11:29.438Z,10.99
2022-11-02T22:13:57.845Z,10.98
2022-11-02T22:16:34.735Z,11.01
2022-11-02T22:19:06.664Z,11.03
2022-11-02T22:21:42.571Z,11.01
2022-11-02T22:24:09.652Z,10.98
2022-11-02T22:26:37.640Z,10.97
2022-11-02T22:29:04.729Z,10.93
2022-11-02T22:31:33.691Z,10.85
2022-11-02T22:34:01.893Z,10.79
2022-11-02T22:36:30.537Z,10.78
2022-11-02T22:38:58.412Z,10.73
2022-11-02T22:41:34.064Z,10.73
2022-11-02T22:44:22.037Z,10.72
2022-11-02T22:46:50.485Z,10.75
2022-11-02T22:49:19.168Z,10.72
2022-11-02T22:51:49.531Z,10.64
2022-11-02T22:54:18.247Z,10.54
2022-11-02T22:56:46.666Z,10.51
2022-11-02T22:59:13.549Z,10.53
2022-11-02T23:01:40.744Z,10.50
2022-11-02T23:04:07.927Z,10.46
2022-11-02T23:06:34.715Z,10.43
2022-11-02T23:09:01.364Z,10.46
2022-11-02T23:11:35.941Z,10.46
2022-11-02T23:14:11.283Z,10.43
2022-11-02T23:16:40.557Z,10.39
2022-11-02T23:19:44.813Z,10.35
2022-11-02T23:22:30.578Z,10.33
2022-11-02T23:25:10.851Z,10.30
2022-11-02T23:27:58.956Z,10.30
2022-11-02T23:30:46.375Z,10.44
2022-11-02T23:33:12.773Z,10.47
2022-11-02T23:35:57.679Z,10.47
2022-11-02T23:38:24.092Z,10.54
2022-11-02T23:40:54.669Z,10.61
2022-11-02T23:43:20.970Z,10.57
2022-11-02T23:45:47.307Z,10.68
2022-11-02T23:48:13.664Z,10.69
2022-11-02T23:50:58.366Z,10.75
2022-11-02T23:53:43.298Z,10.80
2022-11-02T23:56:35.267Z,10.80
2022-11-02T23:59:07.481Z,10.74
